< < Back
Terminal Aerodrome Forecast


Current Version              Previous Versions:   1  2  3  4  5  6  7  8  9  

Terminal Aerodrome Forecast

161
FTUS42 KFFC 220900 AAA
TAFFTY
TAF AMD
KFTY 220951Z 2210/2306 29002KT P6SM FEW250
     FM221500 30005KT P6SM FEW040
     FM221700 31007KT P6SM SCT050
     FM230100 28004KT P6SM FEW070 SCT250=

Latest METAR

857
SAUS70 KWBC 221900 RRD
MTRFTY
METAR KFTY 221853Z 32006KT 10SM FEW070 33/22 A3007 RMK AO2 SLP171
T03280222


USA.gov is the U.S. government's official web portal to all federal, state and local government web resources and services.